Time;durP1;ratioP1;P1;durP2;ratioP2;P2;SDS_P1;SDS_P2;PMS_P1;PMS_P2;Temp;Humidity;BMP_temperature;BMP_pressure;BME280_temperature;BME280_humidity;BME280_pressure;Samples;Min_cycle;Max_cycle;Signal;HPM_P1;HPM_P2
2021/04/22 00:00:29;;;;;;;2.58;2.17;;;;;;;11.48;55.00;99791.28;4341060;33;34276;-73
2021/04/22 00:03:58;;;;;;;2.22;2.03;;;;;;;11.57;54.79;99793.06;4295849;33;35032;-71
2021/04/22 00:16:26;;;;;;;1.60;1.50;;;;;;;11.45;55.54;99795.06;4315506;33;32690;-74
2021/04/22 00:30:00;;;;;;;3.30;2.33;;;;;;;11.38;56.04;99796.69;4336685;33;33878;-73
2021/04/22 00:43:12;;;;;;;1.48;1.33;;;;;;;11.42;56.58;99784.72;4390907;32;33954;-72
2021/04/22 01:05:46;;;;;;;4.50;2.72;;;;;;;10.96;59.23;99740.56;4437727;32;34248;-72
2021/04/22 01:12:30;;;;;;;2.15;1.42;;;;;;;10.79;62.38;99749.34;4422297;32;33656;-74
2021/04/22 01:48:06;;;;;;;2.40;2.20;;;;;;;11.46;58.16;99761.28;4393426;32;33442;-73
2021/04/22 02:10:58;;;;;;;3.83;2.60;;;;;;;11.41;58.21;99761.75;4362424;32;33933;-73
2021/04/22 02:50:17;;;;;;;3.85;2.17;;;;;;;11.53;58.72;99749.06;4437220;32;34980;-75
2021/04/22 02:56:20;;;;;;;2.65;1.92;;;;;;;12.08;56.79;99740.75;4437289;32;34519;-73
2021/04/22 03:05:34;;;;;;;5.03;2.30;;;;;;;11.78;57.42;99745.62;4436720;32;32230;-72
2021/04/22 03:15:26;;;;;;;3.72;1.17;;;;;;;11.77;57.44;99736.81;4436559;32;34135;-72
2021/04/22 03:53:49;;;;;;;3.25;1.02;;;;;;;11.14;57.96;99747.59;4373231;32;33712;-73
2021/04/22 04:03:41;;;;;;;2.30;1.92;;;;;;;10.71;59.80;99771.38;4372748;32;33519;-71
2021/04/22 04:16:06;;;;;;;1.98;1.73;;;;;;;10.84;59.25;99769.19;4412883;32;33586;-73
2021/04/22 04:23:40;;;;;;;2.12;1.90;;;;;;;10.86;58.78;99774.38;4382916;32;34144;-73
2021/04/22 04:27:26;;;;;;;2.60;1.92;;;;;;;10.93;58.61;99778.16;4372628;32;34503;-73
2021/04/22 04:34:26;;;;;;;3.20;2.28;;;;;;;11.03;58.16;99784.25;4328669;33;32533;-73
2021/04/22 05:06:25;;;;;;;2.72;2.53;;;;;;;11.32;59.44;99824.88;4370069;32;33563;-73
2021/04/22 05:16:03;;;;;;;9.82;1.73;;;;;;;11.86;58.74;99834.53;4365240;32;32605;-71
2021/04/22 05:32:31;;;;;;;4.53;2.12;;;;;;;12.36;59.65;99837.47;4399346;32;33448;-73
2021/04/22 05:35:50;;;;;;;2.62;2.42;;;;;;;12.66;59.40;99831.72;4367007;32;35615;-74
2021/04/22 05:39:08;;;;;;;5.90;2.92;;;;;;;12.92;57.63;99828.03;4334954;33;33532;-74
2021/04/22 05:45:32;;;;;;;4.32;2.95;;;;;;;13.33;56.87;99829.12;4334646;33;34139;-74
2021/04/22 05:48:50;;;;;;;4.15;3.70;;;;;;;13.38;57.66;99829.44;4329674;33;36421;-73
2021/04/22 05:55:28;;;;;;;6.78;2.50;;;;;;;13.69;56.49;99820.69;4321178;33;34041;-73
2021/04/22 06:05:42;;;;;;;;;;;;;;;;;;;;;
2021/04/22 06:12:15;;;;;;;2.35;2.03;;;;;;;14.14;53.47;99831.00;4326970;33;34255;-77
2021/04/22 06:15:31;;;;;;;3.05;2.35;;;;;;;14.24;53.96;99834.37;4331061;32;35166;-77
2021/04/22 06:28:26;;;;;;;3.72;3.35;;;;;;;14.39;54.59;99846.94;4351754;32;34515;-75
2021/04/22 06:31:44;;;;;;;3.22;2.33;;;;;;;14.49;53.89;99847.59;4410558;32;33668;-75
2021/04/22 06:37:58;;;;;;;5.35;3.00;;;;;;;14.55;53.89;99855.78;4427289;32;34008;-75
2021/04/22 06:41:37;;;;;;;4.57;1.87;;;;;;;14.57;53.25;99853.78;4401513;32;34452;-76
2021/04/22 06:57:41;;;;;;;3.87;2.55;;;;;;;15.29;51.67;99842.09;4333875;32;34130;-76
2021/04/22 07:04:26;;;;;;;2.15;1.80;;;;;;;14.84;51.47;99849.91;4262515;33;32614;-76
2021/04/22 07:08:41;;;;;;;7.57;3.15;;;;;;;14.94;50.70;99847.87;4261516;33;36659;-76
2021/04/22 07:14:53;;;;;;;2.40;1.73;;;;;;;15.07;51.81;99850.84;4247415;33;33242;-76
2021/04/22 07:24:46;;;;;;;5.43;3.45;;;;;;;15.43;51.71;99857.47;4232003;33;33424;-75
2021/04/22 07:52:03;;;;;;;3.15;2.25;;;;;;;16.93;48.53;99862.03;4328513;32;34081;-76
2021/04/22 07:55:39;;;;;;;4.70;3.67;;;;;;;17.16;47.21;99857.41;4336366;32;33836;-76
2021/04/22 08:16:22;;;;;;;3.97;2.65;;;;;;;18.31;46.22;99859.13;4343374;32;34743;-77
2021/04/22 08:19:49;;;;;;;4.55;2.67;;;;;;;18.70;43.75;99850.59;4343643;32;34717;-76
2021/04/22 08:25:59;;;;;;;3.30;2.62;;;;;;;18.98;42.57;99846.06;4358414;32;33299;-76
2021/04/22 08:35:53;;;;;;;;;;;;;;;;;;;;;
2021/04/22 08:39:37;;;;;;;3.05;2.75;;;;;;;19.17;43.27;99853.44;4300515;33;32130;-77
2021/04/22 09:10:08;;;;;;;3.28;2.70;;;;;;;18.60;42.93;99852.81;4292508;33;34137;-75
2021/04/22 09:40:57;;;;;;;4.22;3.30;;;;;;;19.43;40.01;99842.88;4216152;31;9074088;-76
2021/04/22 09:44:40;;;;;;;3.47;3.15;;;;;;;19.48;42.77;99840.37;4489223;31;31488;-74
2021/04/22 09:48:07;;;;;;;2.78;2.58;;;;;;;19.33;39.30;99845.06;4438581;32;34347;-74
2021/04/22 09:51:28;;;;;;;3.23;1.90;;;;;;;19.53;40.29;99837.94;4426300;32;34870;-74
2021/04/22 09:58:23;;;;;;;;;;;;;;;19.94;36.46;99844.97;4436432;32;33706;-77
2021/04/22 10:01:37;;;;;;;3.35;2.47;;;;;;;19.98;37.42;99834.56;4441179;32;34853;-74
2021/04/22 10:20:48;;;;;;;1.83;1.15;;;;;;;20.23;36.37;99817.63;4432764;31;33092;-74
2021/04/22 10:40:11;;;;;;;2.33;1.90;;;;;;;20.39;32.63;99808.31;4483023;31;33695;-75
2021/04/22 11:12:51;;;;;;;3.08;2.37;;;;;;;19.06;39.01;99808.16;4374252;32;35170;-74
2021/04/22 11:16:15;;;;;;;3.72;1.67;;;;;;;18.33;40.05;99800.53;4369534;32;32871;-75
2021/04/22 11:26:22;;;;;;;2.05;0.50;;;;;;;18.25;37.94;99791.72;4362642;32;33895;-73
2021/04/22 11:29:44;;;;;;;1.55;0.70;;;;;;;18.11;38.60;99781.84;4381422;32;32616;-73
2021/04/22 11:33:07;;;;;;;;;;;;;;;;;;;;;
2021/04/22 11:36:46;;;;;;;0.60;0.60;;;;;;;18.87;36.41;99776.50;4396952;32;34560;-73
2021/04/22 11:43:10;;;;;;;1.48;1.23;;;;;;;20.62;33.25;99771.72;4483455;31;32708;-74
2021/04/22 11:49:33;;;;;;;1.87;0.98;;;;;;;21.15;30.55;99760.62;4446879;31;36542;-74
2021/04/22 12:06:45;;;;;;;1.52;1.35;;;;;;;21.57;30.73;99742.97;4437400;32;34153;-74
2021/04/22 12:14:16;;;;;;;2.58;2.37;;;;;;;22.71;30.36;99732.63;4380697;32;32606;-75
2021/04/22 12:17:18;;;;;;;;;;;;;;;;;;;;;
2021/04/22 12:20:53;;;;;;;4.95;3.08;;;;;;;22.89;29.65;99723.66;4327053;32;33802;-74
2021/04/22 12:34:00;;;;;;;;;;;;;;;;;;;;;
2021/04/22 12:37:23;;;;;;;4.72;2.35;;;;;;;21.04;33.53;99727.97;4281942;33;32595;-75
2021/04/22 12:40:35;;;;;;;4.22;3.00;;;;;;;20.58;33.88;99729.09;4297740;33;33638;-73
2021/04/22 12:43:58;;;;;;;4.15;2.95;;;;;;;19.86;35.29;99736.28;4328913;32;35514;-74
2021/04/22 12:53:42;;;;;;;6.40;2.95;;;;;;;19.23;41.18;99755.56;4341183;32;32261;-74
2021/04/22 12:57:20;;;;;;;3.83;3.50;;;;;;;19.76;37.59;99735.84;4315511;32;37171;-77
2021/04/22 13:00:49;;;;;;;4.03;2.50;;;;;;;20.44;38.53;99722.03;4351945;32;32741;-75
2021/04/22 13:04:00;;;;;;;4.65;3.65;;;;;;;20.83;36.68;99722.81;4419255;32;34451;-76
2021/04/22 13:35:10;;;;;;;4.35;3.30;;;;;;;18.67;39.08;99786.28;4369461;32;35395;-75
2021/04/22 13:38:40;;;;;;;4.47;3.72;;;;;;;18.23;41.41;99794.59;4353118;32;34791;-76
2021/04/22 14:09:31;;;;;;;4.40;3.55;;;;;;;16.37;47.75;99859.84;4317115;33;33866;-76
2021/04/22 14:26:49;;;;;;;3.53;2.75;;;;;;;15.76;49.81;99891.22;4346000;32;33440;-76
2021/04/22 15:18:44;;;;;;;7.28;4.53;;;;;;;19.72;35.39;99846.09;4438400;26;33724;-80
2021/04/22 15:21:12;;;;;;;4.07;3.45;;;;;;;19.67;36.31;99845.03;4400680;32;33692;-77
2021/04/22 15:23:39;;;;;;;4.55;3.67;;;;;;;19.16;36.41;99847.22;4403917;32;34708;-76
2021/04/22 15:26:10;;;;;;;4.45;3.72;;;;;;;18.53;37.50;99849.19;4416481;32;34003;-77
2021/04/22 15:28:44;;;;;;;4.70;4.03;;;;;;;18.82;37.24;99860.66;4390506;32;32703;-80
2021/04/22 15:31:43;;;;;;;4.25;3.10;;;;;;;19.55;36.56;99844.78;4400945;32;35552;-80
2021/04/22 15:34:28;;;;;;;4.28;3.87;;;;;;;20.21;36.10;99843.19;4405409;32;35628;-79
2021/04/22 15:37:01;;;;;;;3.50;3.03;;;;;;;20.26;34.70;99840.69;4400653;32;34332;-79
2021/04/22 15:39:32;;;;;;;4.87;3.17;;;;;;;20.28;35.18;99844.84;4387790;32;33099;-77
2021/04/22 15:42:10;;;;;;;3.20;2.83;;;;;;;20.20;34.12;99836.13;4381582;32;32457;-77
2021/04/22 15:44:42;;;;;;;2.65;2.42;;;;;;;19.45;35.29;99847.00;4415080;32;34777;-77
2021/04/22 15:47:10;;;;;;;4.57;4.00;;;;;;;19.27;36.33;99851.25;4431040;32;33641;-77
2021/04/22 15:49:38;;;;;;;4.95;4.43;;;;;;;18.92;36.05;99844.12;4389249;32;32901;-77
2021/04/22 15:52:05;;;;;;;7.70;4.07;;;;;;;18.95;36.97;99847.28;4400323;32;32726;-77
2021/04/22 15:54:35;;;;;;;3.97;3.15;;;;;;;19.08;36.64;99847.34;4406536;32;33997;-77
2021/04/22 15:57:04;;;;;;;3.12;2.50;;;;;;;19.05;36.31;99844.22;4405647;32;34521;-77
2021/04/22 15:59:32;;;;;;;3.03;2.72;;;;;;;18.76;37.56;99849.81;4415101;32;32145;-77
2021/04/22 16:02:05;;;;;;;3.80;3.50;;;;;;;18.97;37.03;99853.31;4411417;32;33412;-79
2021/04/22 16:04:36;;;;;;;3.75;3.37;;;;;;;18.83;36.56;99858.78;4401420;32;36326;-77
2021/04/22 16:07:05;;;;;;;3.55;3.25;;;;;;;19.03;36.17;99851.69;4404164;32;33090;-77
2021/04/22 16:09:35;;;;;;;2.75;1.80;;;;;;;19.04;35.96;99856.87;4403950;32;34018;-77
2021/04/22 16:12:06;;;;;;;2.50;2.28;;;;;;;18.71;35.96;99857.66;4417009;32;34378;-77
2021/04/22 16:14:53;;;;;;;3.67;2.62;;;;;;;18.32;35.93;99855.41;4402561;32;35668;-77
2021/04/22 16:17:21;;;;;;;1.92;1.58;;;;;;;18.22;36.46;99859.44;4419151;32;35177;-77
2021/04/22 16:19:49;;;;;;;;;;;;;;;18.14;36.79;99863.06;4404076;32;32888;-77
2021/04/22 16:22:20;;;;;;;2.62;2.33;;;;;;;18.30;36.03;99857.47;4419909;32;32536;-77
2021/04/22 16:24:49;;;;;;;4.22;2.78;;;;;;;18.02;36.67;99859.22;4412796;32;35095;-77
2021/04/22 16:27:18;;;;;;;3.53;2.12;;;;;;;17.89;37.24;99850.16;4402081;32;35386;-77
2021/04/22 16:29:49;;;;;;;2.83;2.05;;;;;;;17.95;37.80;99850.22;4392165;32;32167;-77
2021/04/22 16:32:18;;;;;;;2.05;1.95;;;;;;;17.83;38.34;99850.88;4404915;32;32953;-77
2021/04/22 16:34:46;;;;;;;3.37;1.85;;;;;;;18.04;38.17;99856.34;4416337;32;35007;-77
2021/04/22 16:37:16;;;;;;;3.00;2.65;;;;;;;17.94;37.20;99855.81;4398367;32;33047;-78
2021/04/22 16:39:45;;;;;;;3.28;2.95;;;;;;;17.34;37.14;99862.44;4424064;32;32424;-77
2021/04/22 16:42:18;;;;;;;6.45;3.08;;;;;;;17.47;37.31;99859.97;4424404;32;34395;-78
2021/04/22 16:44:46;;;;;;;3.60;2.25;;;;;;;16.74;37.27;99864.37;4406182;32;36169;-77
2021/04/22 16:47:15;;;;;;;3.37;2.33;;;;;;;16.64;38.51;99869.19;4405993;32;34590;-78
2021/04/22 16:49:44;;;;;;;3.30;2.37;;;;;;;17.04;38.30;99871.47;4418946;32;33613;-78
2021/04/22 16:52:12;;;;;;;7.90;2.20;;;;;;;16.74;38.08;99867.06;4404949;32;32755;-78
2021/04/22 16:54:57;;;;;;;2.65;2.15;;;;;;;16.71;38.11;99867.44;4409211;32;34717;-78
2021/04/22 16:57:28;;;;;;;6.22;3.58;;;;;;;16.55;39.22;99870.25;4407424;32;32601;-77
2021/04/22 16:59:57;;;;;;;5.45;3.25;;;;;;;16.58;39.03;99869.88;4397446;32;32480;-77
2021/04/22 17:02:27;;;;;;;4.70;3.67;;;;;;;16.60;39.60;99873.25;4400528;32;34100;-78
2021/04/22 17:04:55;;;;;;;6.12;3.62;;;;;;;16.86;39.35;99884.41;4403309;32;33764;-78
2021/04/22 17:07:25;;;;;;;4.60;3.70;;;;;;;16.64;39.44;99883.47;4431025;32;33149;-78
2021/04/22 17:09:54;;;;;;;5.05;3.65;;;;;;;16.68;39.79;99887.44;4401426;32;32697;-78
2021/04/22 17:12:22;;;;;;;4.55;3.05;;;;;;;16.44;41.19;99895.69;4408656;32;32587;-78
2021/04/22 17:14:52;;;;;;;3.47;3.17;;;;;;;16.34;40.47;99883.50;4438984;32;34650;-77
2021/04/22 17:17:22;;;;;;;11.52;3.05;;;;;;;16.34;40.77;99886.16;4415701;32;34025;-78
2021/04/22 17:19:50;;;;;;;2.45;2.22;;;;;;;16.11;41.45;99894.19;4400531;32;33595;-78
2021/04/22 17:22:19;;;;;;;3.08;2.75;;;;;;;16.22;41.40;99893.78;4407771;32;33616;-78
2021/04/22 17:24:48;;;;;;;5.22;2.60;;;;;;;15.64;41.98;99903.31;4431436;32;34694;-78
2021/04/22 17:27:16;;;;;;;3.35;2.60;;;;;;;15.65;42.90;99911.19;4403994;32;34156;-78
2021/04/22 17:29:45;;;;;;;3.95;2.60;;;;;;;15.49;43.18;99913.09;4419478;32;34195;-78
2021/04/22 17:32:15;;;;;;;3.22;2.92;;;;;;;15.21;43.49;99920.66;4389607;32;34578;-78
2021/04/22 17:34:45;;;;;;;3.10;1.90;;;;;;;15.42;43.41;99920.97;4405929;32;35835;-77
2021/04/22 17:37:14;;;;;;;4.70;2.85;;;;;;;14.60;45.57;99928.44;4393502;32;33014;-77
2021/04/22 17:39:43;;;;;;;2.17;1.98;;;;;;;14.84;45.22;99927.59;4402760;32;33228;-78
2021/04/22 17:42:11;;;;;;;3.12;2.45;;;;;;;15.24;44.52;99930.22;4403988;32;34469;-78
2021/04/22 17:44:40;;;;;;;3.80;3.00;;;;;;;15.04;44.94;99937.78;4408875;32;33415;-78
2021/04/22 17:47:09;;;;;;;2.30;2.10;;;;;;;15.08;44.79;99938.28;4416826;32;34068;-78
2021/04/22 17:49:52;;;;;;;2.47;2.25;;;;;;;15.21;44.78;99943.97;4414764;32;33068;-77
2021/04/22 17:52:21;;;;;;;2.92;2.58;;;;;;;15.01;45.57;99938.13;4400965;32;34568;-78
2021/04/22 17:54:49;;;;;;;2.42;1.73;;;;;;;14.99;44.87;99944.66;4418782;32;34384;-77
2021/04/22 17:57:17;;;;;;;;;;;;;;;14.65;45.79;99944.81;4438969;32;33965;-78
2021/04/22 17:59:45;;;;;;;4.28;2.00;;;;;;;14.28;46.26;99958.81;4393880;32;32941;-78
2021/04/22 18:02:24;;;;;;;3.28;2.30;;;;;;;14.66;45.96;99967.09;4421790;32;33996;-78
2021/04/22 18:04:52;;;;;;;3.70;2.40;;;;;;;14.56;46.64;99972.59;4405022;32;33815;-78
2021/04/22 18:07:20;;;;;;;2.90;2.65;;;;;;;14.57;46.55;99976.13;4409064;32;34007;-78
2021/04/22 18:09:48;;;;;;;;;;;;;;;14.18;47.51;99976.84;4424336;32;32718;-78
2021/04/22 18:12:17;;;;;;;4.18;2.87;;;;;;;14.18;47.69;99971.50;4404975;32;35845;-78
2021/04/22 18:14:47;;;;;;;3.72;2.45;;;;;;;14.58;46.76;99975.94;4390428;32;34300;-78
2021/04/22 18:17:15;;;;;;;6.25;3.03;;;;;;;14.66;46.77;99978.63;4415889;32;35473;-78
2021/04/22 18:19:44;;;;;;;3.30;2.20;;;;;;;14.60;46.95;99989.16;4417642;32;33330;-78
2021/04/22 18:22:17;;;;;;;3.97;3.55;;;;;;;14.21;48.55;99992.56;4406987;32;33957;-78
2021/04/22 18:24:45;;;;;;;3.28;2.55;;;;;;;14.31;48.29;99983.41;4418682;32;34835;-78
2021/04/22 18:27:13;;;;;;;3.50;3.12;;;;;;;14.29;48.35;99992.59;4402460;32;32964;-78
2021/04/22 18:29:42;;;;;;;4.40;4.00;;;;;;;14.53;47.83;100001.53;4417465;32;33290;-78
2021/04/22 18:32:10;;;;;;;3.58;2.50;;;;;;;14.38;48.23;100007.69;4419018;32;33297;-78
2021/04/22 18:34:39;;;;;;;3.25;2.25;;;;;;;14.42;48.59;100006.37;4404725;32;34644;-78
2021/04/22 18:37:07;;;;;;;4.57;2.47;;;;;;;13.93;49.54;100005.31;4415349;32;34116;-78
2021/04/22 18:39:36;;;;;;;3.00;1.87;;;;;;;14.23;49.17;100012.00;4404625;32;33873;-78
2021/04/22 18:42:05;;;;;;;4.60;2.75;;;;;;;14.45;48.88;100014.88;4412066;32;34476;-78
2021/04/22 18:44:34;;;;;;;3.05;2.78;;;;;;;14.25;49.31;100023.37;4415856;32;35047;-77
2021/04/22 18:47:02;;;;;;;3.15;2.20;;;;;;;14.23;49.08;100026.19;4406889;32;33013;-78
2021/04/22 18:49:32;;;;;;;2.65;2.37;;;;;;;14.21;48.66;100033.56;4421346;32;33293;-78
2021/04/22 18:52:03;;;;;;;2.55;2.00;;;;;;;14.06;49.62;100040.47;4389119;32;32632;-78
2021/04/22 18:54:32;;;;;;;2.45;2.22;;;;;;;14.12;48.86;100049.69;4423481;32;34817;-78
2021/04/22 18:57:00;;;;;;;3.75;3.40;;;;;;;14.06;48.70;100042.31;4419905;32;34351;-78
2021/04/22 18:59:29;;;;;;;1.98;1.87;;;;;;;13.81;48.09;100054.75;4414650;32;34725;-78
2021/04/22 19:01:57;;;;;;;3.17;2.17;;;;;;;13.57;48.01;100053.72;4415380;32;33254;-77
2021/04/22 19:04:28;;;;;;;2.55;2.10;;;;;;;13.63;47.66;100071.81;4416570;32;34061;-77
2021/04/22 19:07:03;;;;;;;2.03;1.67;;;;;;;13.63;48.39;100064.66;4397670;32;33396;-78
2021/04/22 19:09:43;;;;;;;4.45;2.92;;;;;;;13.44;48.46;100074.69;4416608;32;32494;-77
2021/04/22 19:12:11;;;;;;;2.53;2.15;;;;;;;13.75;47.76;100075.91;4398753;32;32618;-78
2021/04/22 19:14:39;;;;;;;6.90;3.50;;;;;;;13.94;47.11;100075.69;4395632;32;34680;-78
2021/04/22 19:17:07;;;;;;;2.90;2.05;;;;;;;13.77;46.91;100079.28;4418858;32;33910;-77
2021/04/22 19:19:35;;;;;;;;;;;;;;;13.89;46.94;100083.34;4414520;32;34041;-78
2021/04/22 19:22:03;;;;;;;3.33;2.65;;;;;;;13.98;46.89;100087.75;4408598;32;33856;-77
2021/04/22 19:24:30;;;;;;;2.75;2.17;;;;;;;13.99;46.92;100076.91;4421183;32;34305;-75
2021/04/22 19:26:58;;;;;;;1.92;1.83;;;;;;;13.97;47.16;100084.22;4417593;32;34924;-77
2021/04/22 19:29:26;;;;;;;;;;;;;;;13.89;47.47;100080.69;4418086;32;32352;-77
2021/04/22 19:31:56;;;;;;;3.80;2.33;;;;;;;13.99;47.36;100084.94;4401517;32;34504;-78
2021/04/22 19:34:24;;;;;;;;;;;;;;;13.95;47.68;100083.56;4417155;32;34474;-78
2021/04/22 19:36:52;;;;;;;2.65;1.90;;;;;;;14.16;47.33;100083.19;4407598;32;34461;-78
2021/04/22 19:39:21;;;;;;;3.20;2.03;;;;;;;14.09;47.65;100082.97;4418883;32;33067;-78
2021/04/22 19:41:48;;;;;;;4.72;2.22;;;;;;;14.07;47.81;100090.31;4401714;32;34262;-78
2021/04/22 19:44:16;;;;;;;;;;;;;;;13.99;47.99;100087.59;4416794;32;35008;-77
2021/04/22 19:46:47;;;;;;;4.05;2.78;;;;;;;13.74;47.74;100090.25;4403357;32;33562;-78
2021/04/22 19:49:15;;;;;;;3.55;2.20;;;;;;;13.88;46.03;100093.19;4407420;32;33142;-77
2021/04/22 19:51:43;;;;;;;;;;;;;;;13.64;46.28;100085.03;4396958;32;32716;-78
2021/04/22 19:54:13;;;;;;;3.70;3.00;;;;;;;13.59;45.33;100095.34;4413684;32;35721;-78
2021/04/22 19:56:41;;;;;;;3.20;1.87;;;;;;;13.56;46.16;100098.34;4406558;32;33012;-78
2021/04/22 19:59:09;;;;;;;5.78;1.92;;;;;;;13.47;46.04;100095.75;4400358;32;33183;-79
2021/04/22 20:01:36;;;;;;;2.67;2.00;;;;;;;13.46;45.94;100100.28;4419037;32;34554;-78
2021/04/22 20:04:04;;;;;;;2.60;1.77;;;;;;;13.50;46.41;100106.16;4419198;32;34572;-77
2021/04/22 20:06:33;;;;;;;2.87;2.00;;;;;;;13.66;45.84;100111.59;4414263;32;34806;-77
2021/04/22 20:09:00;;;;;;;3.33;2.12;;;;;;;13.65;45.29;100104.56;4399082;32;32116;-78
2021/04/22 20:11:29;;;;;;;3.30;2.58;;;;;;;13.43;45.91;100113.09;4386561;32;33137;-77
2021/04/22 20:14:00;;;;;;;2.42;2.22;;;;;;;13.35;45.91;100118.37;4417960;32;35635;-77
2021/04/22 20:16:36;;;;;;;3.53;3.22;;;;;;;13.18;46.27;100122.75;4424240;32;34023;-78
2021/04/22 20:19:05;;;;;;;5.12;2.58;;;;;;;13.42;45.55;100125.59;4400035;32;32827;-77
2021/04/22 20:21:34;;;;;;;3.75;2.75;;;;;;;13.42;45.59;100125.59;4400914;32;34661;-77
2021/04/22 20:24:01;;;;;;;3.15;2.33;;;;;;;13.25;45.43;100125.63;4387476;32;34684;-77
2021/04/22 20:29:03;;;;;;;2.33;1.65;;;;;;;12.79;46.60;100113.28;4467600;26;35040;-81
2021/04/22 20:31:31;;;;;;;2.15;1.75;;;;;;;12.88;46.30;100122.22;4433131;32;33613;-80
2021/04/22 20:33:59;;;;;;;2.90;2.55;;;;;;;12.74;46.33;100125.41;4437670;32;34457;-81
2021/04/22 20:36:27;;;;;;;2.55;2.22;;;;;;;12.25;47.63;100137.31;4449424;32;33684;-80
2021/04/22 20:38:55;;;;;;;3.37;2.78;;;;;;;12.67;46.18;100135.00;4445451;32;33340;-81
2021/04/22 20:41:22;;;;;;;4.80;2.22;;;;;;;12.37;46.80;100141.47;4446561;32;33689;-80
2021/04/22 20:43:54;;;;;;;2.75;2.40;;;;;;;12.53;46.36;100135.50;4451762;32;34402;-81
2021/04/22 20:46:23;;;;;;;2.72;1.75;;;;;;;12.32;46.32;100141.09;4436704;32;34567;-80
2021/04/22 20:48:51;;;;;;;3.67;2.37;;;;;;;12.46;46.05;100140.59;4432891;32;33662;-80
2021/04/22 20:51:19;;;;;;;4.25;2.17;;;;;;;12.24;46.30;100134.78;4440243;32;33462;-81
2021/04/22 20:53:46;;;;;;;3.75;2.35;;;;;;;12.35;46.41;100139.94;4453805;32;35819;-81
2021/04/22 20:56:14;;;;;;;3.40;1.87;;;;;;;12.35;46.07;100140.78;4434899;32;33828;-81
2021/04/22 20:58:41;;;;;;;1.97;1.60;;;;;;;12.31;46.57;100146.56;4429439;32;35078;-82
2021/04/22 21:01:10;;;;;;;6.03;2.00;;;;;;;12.17;47.62;100147.88;4434973;32;33757;-81
2021/04/22 21:03:37;;;;;;;4.65;2.20;;;;;;;12.06;46.75;100152.53;4454233;32;34819;-81
2021/04/22 21:06:13;;;;;;;4.37;2.50;;;;;;;12.07;46.17;100152.41;4458096;32;33975;-80
2021/04/22 21:08:40;;;;;;;1.33;1.10;;;;;;;12.14;46.58;100158.00;4433951;32;33048;-80
2021/04/22 21:11:14;;;;;;;3.22;1.87;;;;;;;11.87;47.46;100164.09;4432499;32;33744;-82
2021/04/22 21:13:45;;;;;;;2.33;2.12;;;;;;;11.70;46.08;100170.16;4447569;32;36124;-81
2021/04/22 21:16:13;;;;;;;2.28;1.50;;;;;;;11.63;45.88;100165.56;4455419;32;33694;-82
2021/04/22 21:18:40;;;;;;;5.25;1.67;;;;;;;11.81;46.11;100172.66;4448164;32;33030;-82
2021/04/22 21:21:09;;;;;;;2.45;1.52;;;;;;;11.82;46.22;100165.53;4449091;32;34248;-81
2021/04/22 21:23:38;;;;;;;3.03;1.70;;;;;;;12.01;45.27;100168.97;4457026;32;34950;-82
2021/04/22 21:27:01;;;;;;;3.28;3.00;;;;;;;12.07;44.57;100167.53;4454229;32;34326;-81
2021/04/22 21:29:33;;;;;;;1.90;1.62;;;;;;;12.19;44.85;100174.41;4419552;32;32958;-81
2021/04/22 21:32:05;;;;;;;4.40;1.90;;;;;;;12.09;45.69;100169.09;4456822;32;34148;-81
2021/04/22 21:34:34;;;;;;;3.03;2.83;;;;;;;12.20;44.76;100168.91;4449641;32;34783;-81
2021/04/22 21:37:02;;;;;;;5.12;2.12;;;;;;;11.94;45.38;100170.56;4456638;32;34987;-81
2021/04/22 21:39:29;;;;;;;;;;;;;;;11.84;45.12;100169.69;4447262;32;32862;-82
2021/04/22 21:41:57;;;;;;;2.17;1.98;;;;;;;12.22;44.55;100172.31;4424614;32;32786;-81
2021/04/22 21:44:25;;;;;;;2.37;1.75;;;;;;;12.11;44.40;100174.28;4436531;32;36337;-81
2021/04/22 21:47:07;;;;;;;1.37;0.60;;;;;;;12.09;44.25;100174.44;4451359;32;34132;-81
2021/04/22 21:49:41;;;;;;;2.15;1.70;;;;;;;12.25;44.14;100182.66;4446537;32;33129;-81
2021/04/22 21:52:08;;;;;;;;;;;;;;;12.19;44.67;100177.06;4447134;32;34693;-81
2021/04/22 21:54:38;;;;;;;3.95;2.40;;;;;;;11.94;45.70;100183.88;4436990;32;34606;-82
2021/04/22 21:57:06;;;;;;;2.85;2.20;;;;;;;11.65;46.82;100184.91;4437246;32;34977;-82
2021/04/22 21:59:35;;;;;;;1.75;1.05;;;;;;;11.82;46.24;100185.00;4448592;32;33467;-81
2021/04/22 22:02:04;;;;;;;2.35;2.17;;;;;;;11.98;46.21;100192.41;4436051;32;33944;-81
2021/04/22 22:04:33;;;;;;;1.60;1.50;;;;;;;11.71;46.48;100195.00;4451065;32;34913;-82
2021/04/22 22:07:01;;;;;;;;;;;;;;;11.87;46.38;100192.56;4435511;32;34850;-81
2021/04/22 22:09:35;;;;;;;1.92;1.83;;;;;;;12.02;45.95;100191.16;4445887;32;32460;-82
2021/04/22 22:12:17;;;;;;;2.20;1.67;;;;;;;11.81;46.44;100191.31;4450323;32;34607;-80
2021/04/22 22:14:45;;;;;;;4.87;2.17;;;;;;;11.76;46.48;100196.25;4442797;32;35184;-81
2021/04/22 22:17:13;;;;;;;5.32;2.12;;;;;;;11.79;45.45;100201.28;4459814;32;33795;-82
2021/04/22 22:19:40;;;;;;;3.00;1.98;;;;;;;11.70;45.15;100196.81;4451380;32;33195;-81
2021/04/22 22:22:07;;;;;;;1.70;1.45;;;;;;;11.70;45.32;100204.81;4443161;32;34657;-81
2021/04/22 22:24:35;;;;;;;2.87;2.00;;;;;;;11.65;44.74;100209.72;4426764;32;36025;-81
2021/04/22 22:27:03;;;;;;;1.00;1.00;;;;;;;11.53;45.18;100208.16;4457213;32;34857;-82
2021/04/22 22:29:31;;;;;;;3.33;1.37;;;;;;;11.56;44.52;100209.69;4436153;32;32494;-80
2021/04/22 22:32:00;;;;;;;2.40;1.12;;;;;;;11.46;43.79;100215.00;4445388;32;33640;-81
2021/04/22 22:34:29;;;;;;;3.72;1.45;;;;;;;11.52;43.24;100210.94;4444798;32;35130;-81
2021/04/22 22:36:56;;;;;;;1.40;0.98;;;;;;;11.46;43.90;100212.34;4446627;32;34083;-81
2021/04/22 22:39:24;;;;;;;2.22;1.15;;;;;;;11.47;43.43;100216.69;4429529;32;32952;-82
2021/04/22 22:41:53;;;;;;;2.20;2.00;;;;;;;11.44;42.60;100216.16;4435840;32;34202;-81
2021/04/22 22:44:23;;;;;;;1.48;0.68;;;;;;;11.50;42.95;100210.25;4427755;32;34974;-80
2021/04/22 22:46:52;;;;;;;1.77;1.08;;;;;;;11.33;43.78;100216.25;4457490;32;34085;-81
2021/04/22 22:49:19;;;;;;;1.35;1.00;;;;;;;11.13;43.97;100217.22;4454414;32;33938;-80
2021/04/22 22:51:48;;;;;;;1.92;0.62;;;;;;;11.50;42.94;100213.75;4435821;32;34126;-80
2021/04/22 22:54:19;;;;;;;2.10;1.67;;;;;;;11.13;43.02;100219.87;4437997;32;35286;-81
2021/04/22 22:56:46;;;;;;;1.02;0.77;;;;;;;11.32;41.81;100219.09;4438225;32;33792;-81
2021/04/22 22:59:14;;;;;;;1.75;1.58;;;;;;;11.30;42.21;100221.03;4446445;32;32775;-80
2021/04/22 23:01:42;;;;;;;3.83;2.25;;;;;;;11.23;42.47;100218.06;4462881;32;33291;-81
2021/04/22 23:04:10;;;;;;;0.93;0.85;;;;;;;10.95;43.04;100226.84;4450839;32;35759;-81
2021/04/22 23:06:37;;;;;;;1.67;1.45;;;;;;;11.17;42.35;100229.28;4451263;32;34861;-80
2021/04/22 23:09:05;;;;;;;2.60;1.33;;;;;;;10.92;43.40;100229.78;4455136;32;32880;-82
2021/04/22 23:11:32;;;;;;;2.08;0.90;;;;;;;10.78;43.97;100239.97;4434280;32;33842;-81
2021/04/22 23:13:59;;;;;;;1.10;1.03;;;;;;;10.86;44.74;100240.97;4454988;32;35414;-80
2021/04/22 23:16:27;;;;;;;12.20;0.90;;;;;;;10.84;44.21;100245.59;4438176;32;34086;-81
2021/04/22 23:18:54;;;;;;;1.02;0.60;;;;;;;11.10;44.46;100253.91;4450196;32;32952;-81
2021/04/22 23:21:21;;;;;;;6.20;1.90;;;;;;;10.90;44.21;100253.03;4446346;32;33733;-81
2021/04/22 23:23:49;;;;;;;3.53;1.62;;;;;;;11.20;44.13;100250.31;4443557;32;34677;-81
2021/04/22 23:26:16;;;;;;;1.60;1.50;;;;;;;11.26;44.45;100249.78;4437088;32;34325;-81
2021/04/22 23:28:43;;;;;;;0.80;0.53;;;;;;;10.93;44.85;100255.41;4436847;32;35174;-80
2021/04/22 23:31:11;;;;;;;0.90;0.88;;;;;;;10.88;45.28;100259.47;4434269;32;33375;-81
2021/04/22 23:33:38;;;;;;;2.87;1.30;;;;;;;11.09;45.13;100266.41;4438069;32;34538;-81
2021/04/22 23:36:06;;;;;;;7.45;1.95;;;;;;;11.06;45.39;100263.19;4432728;32;34616;-81
2021/04/22 23:38:33;;;;;;;0.80;0.80;;;;;;;10.89;45.53;100266.47;4435634;32;35035;-81
2021/04/22 23:41:02;;;;;;;2.72;1.10;;;;;;;10.59;47.16;100267.31;4448611;32;34373;-80
2021/04/22 23:43:32;;;;;;;1.58;1.40;;;;;;;10.85;46.51;100271.22;4448576;32;36295;-81
2021/04/22 23:46:01;;;;;;;2.42;2.22;;;;;;;10.66;46.85;100265.81;4447454;32;34544;-80
2021/04/22 23:48:28;;;;;;;3.42;1.37;;;;;;;10.74;46.58;100273.16;4435106;32;35220;-81
2021/04/22 23:50:57;;;;;;;7.55;0.98;;;;;;;10.71;46.95;100270.75;4447247;32;34249;-80
2021/04/22 23:53:26;;;;;;;3.15;1.65;;;;;;;10.86;47.17;100269.41;4431759;32;34208;-81